createdAt,value
2022-11-29T00:01:29.948Z,69.94
2022-11-29T00:03:57.558Z,70.00
2022-11-29T00:06:27.443Z,70.26
2022-11-29T00:08:55.950Z,69.35
2022-11-29T00:11:45.326Z,69.02
2022-11-29T00:14:15.826Z,68.29
2022-11-29T00:16:43.206Z,69.49
2022-11-29T00:19:11.094Z,70.54
2022-11-29T00:21:37.902Z,69.65
2022-11-29T00:24:05.411Z,70.84
2022-11-29T00:26:37.117Z,69.39
2022-11-29T00:29:05.001Z,69.19
2022-11-29T00:31:35.293Z,69.46
2022-11-29T00:34:04.424Z,69.38
2022-11-29T00:36:31.177Z,68.80
2022-11-29T00:38:58.691Z,70.45
2022-11-29T00:41:25.743Z,71.32
2022-11-29T00:43:52.449Z,70.76
2022-11-29T00:46:19.120Z,70.85
2022-11-29T00:48:45.935Z,70.23
2022-11-29T00:51:15.609Z,69.68
2022-11-29T00:53:42.342Z,72.20
2022-11-29T00:56:09.076Z,72.70
2022-11-29T00:58:36.456Z,73.05
2022-11-29T01:01:04.269Z,73.67
2022-11-29T01:03:31.297Z,72.66
2022-11-29T01:06:05.956Z,72.81
2022-11-29T01:08:32.903Z,71.54
2022-11-29T01:11:13.733Z,70.55
2022-11-29T01:13:41.437Z,70.71
2022-11-29T01:16:10.168Z,70.78
2022-11-29T01:18:40.431Z,72.19
2022-11-29T01:21:11.403Z,71.12
2022-11-29T01:23:38.678Z,71.55
2022-11-29T01:26:21.011Z,72.10
2022-11-29T01:28:50.277Z,70.21
2022-11-29T01:31:24.229Z,69.83
2022-11-29T01:33:58.177Z,72.17
2022-11-29T01:36:25.694Z,70.64
2022-11-29T01:38:52.924Z,69.90
2022-11-29T01:41:25.655Z,71.33
2022-11-29T01:44:04.096Z,69.88
2022-11-29T01:46:40.462Z,70.99
2022-11-29T01:49:25.175Z,71.77
2022-11-29T01:51:55.793Z,71.22
2022-11-29T01:54:22.836Z,69.79
2022-11-29T01:56:51.820Z,70.59
2022-11-29T01:59:22.037Z,69.63
2022-11-29T02:01:48.931Z,69.37
2022-11-29T02:04:18.763Z,68.83
2022-11-29T02:06:46.191Z,69.24
2022-11-29T02:09:23.691Z,68.46
2022-11-29T02:12:23.003Z,69.08
2022-11-29T02:15:23.697Z,69.53
2022-11-29T02:18:02.711Z,69.39
2022-11-29T02:20:51.151Z,69.09
2022-11-29T02:23:24.438Z,67.97
2022-11-29T02:26:15.854Z,69.17
2022-11-29T02:29:10.455Z,68.57
2022-11-29T02:31:57.168Z,68.90
2022-11-29T02:34:52.035Z,69.24
2022-11-29T02:37:57.132Z,69.95
2022-11-29T02:40:53.464Z,69.49
2022-11-29T02:43:54.107Z,69.73
2022-11-29T02:46:51.866Z,71.49
2022-11-29T02:50:03.161Z,70.91
2022-11-29T02:52:42.934Z,72.93
2022-11-29T02:55:16.176Z,72.00
2022-11-29T02:57:47.241Z,71.16
2022-11-29T03:00:18.261Z,72.48
2022-11-29T03:03:03.426Z,71.99
2022-11-29T03:05:35.864Z,72.82
2022-11-29T03:08:39.816Z,70.64
2022-11-29T03:11:09.607Z,69.68
2022-11-29T03:14:14.559Z,68.90
2022-11-29T03:16:58.069Z,69.77
2022-11-29T03:19:57.342Z,68.81
2022-11-29T03:22:57.886Z,69.08
2022-11-29T03:25:24.552Z,70.32
2022-11-29T03:28:15.778Z,68.67
2022-11-29T03:30:58.914Z,70.75
2022-11-29T03:33:46.966Z,69.81
2022-11-29T03:36:32.279Z,69.45
2022-11-29T03:39:05.516Z,69.89
2022-11-29T03:41:46.709Z,69.89
2022-11-29T03:44:17.733Z,69.63
2022-11-29T03:46:54.708Z,68.45
2022-11-29T03:49:27.479Z,69.82
2022-11-29T03:52:36.595Z,69.75
2022-11-29T03:55:32.077Z,69.49
2022-11-29T03:58:34.711Z,70.56
2022-11-29T04:01:35.675Z,69.82
2022-11-29T04:04:27.764Z,69.29
2022-11-29T04:07:16.546Z,70.30
2022-11-29T04:10:09.503Z,69.60
2022-11-29T04:13:04.234Z,70.26
2022-11-29T04:15:54.719Z,69.54
2022-11-29T04:18:36.976Z,70.53
2022-11-29T04:21:46.713Z,71.04
2022-11-29T04:24:31.455Z,71.26
2022-11-29T04:27:19.232Z,71.15
2022-11-29T04:30:21.293Z,70.93
2022-11-29T04:32:50.984Z,70.96
2022-11-29T04:35:57.735Z,69.68
2022-11-29T04:38:46.829Z,70.01
2022-11-29T04:41:35.412Z,70.53
2022-11-29T04:44:08.175Z,70.47
2022-11-29T04:46:59.588Z,71.36
2022-11-29T04:49:29.235Z,71.91
2022-11-29T04:51:55.850Z,72.50
2022-11-29T04:54:47.516Z,70.10
2022-11-29T04:57:37.685Z,70.34
2022-11-29T05:00:15.093Z,69.01
2022-11-29T05:03:35.615Z,69.12
2022-11-29T05:06:23.951Z,70.26
2022-11-29T05:08:56.489Z,69.49
2022-11-29T05:11:27.038Z,69.63
2022-11-29T05:14:15.136Z,70.47
2022-11-29T05:16:53.753Z,71.26
2022-11-29T05:20:05.021Z,70.90
2022-11-29T05:22:50.469Z,72.21
2022-11-29T05:25:42.027Z,71.08
2022-11-29T05:28:26.009Z,72.32
2022-11-29T05:31:11.447Z,71.11
2022-11-29T05:33:56.911Z,70.26
2022-11-29T05:36:54.104Z,69.45
2022-11-29T05:39:37.664Z,69.75
2022-11-29T05:42:19.848Z,69.61
2022-11-29T05:45:04.827Z,71.13
2022-11-29T05:47:43.982Z,69.76
2022-11-29T05:50:39.847Z,69.36
2022-11-29T05:53:42.008Z,69.10
2022-11-29T05:56:26.891Z,70.74
2022-11-29T05:59:05.952Z,70.76
2022-11-29T06:01:50.233Z,70.77
2022-11-29T06:04:56.026Z,71.59
2022-11-29T06:07:48.466Z,69.61
2022-11-29T06:10:20.116Z,71.74
2022-11-29T06:13:05.805Z,72.82
2022-11-29T06:16:10.525Z,71.80
2022-11-29T06:18:51.052Z,72.37
2022-11-29T06:21:25.144Z,72.85
2022-11-29T06:24:11.869Z,71.78
2022-11-29T06:26:58.127Z,70.29
2022-11-29T06:29:57.399Z,71.47
2022-11-29T06:33:03.178Z,71.00
2022-11-29T06:35:36.019Z,70.86
2022-11-29T06:38:30.142Z,70.80
2022-11-29T06:41:01.884Z,69.67
2022-11-29T06:43:30.225Z,70.97
2022-11-29T06:45:59.587Z,70.82
2022-11-29T06:48:28.948Z,70.55
2022-11-29T06:51:29.735Z,71.08
2022-11-29T06:54:19.492Z,71.91
2022-11-29T06:57:04.283Z,72.64
2022-11-29T06:59:44.250Z,72.32
2022-11-29T07:02:48.768Z,72.08
2022-11-29T07:05:24.859Z,71.14
2022-11-29T07:07:55.645Z,72.70
2022-11-29T07:10:25.706Z,71.57
2022-11-29T07:12:53.783Z,71.26
2022-11-29T07:15:22.527Z,70.49
2022-11-29T07:18:14.323Z,70.88
2022-11-29T07:20:50.926Z,71.96
2022-11-29T07:23:27.813Z,72.06
2022-11-29T07:25:57.409Z,71.56
2022-11-29T07:28:43.620Z,71.40
2022-11-29T07:31:25.257Z,74.93
2022-11-29T07:34:16.275Z,73.16
2022-11-29T07:36:45.823Z,74.83
2022-11-29T07:39:50.919Z,74.53
2022-11-29T07:42:31.449Z,73.09
2022-11-29T07:45:26.041Z,72.71
2022-11-29T07:47:53.223Z,72.33
2022-11-29T07:50:23.160Z,71.84
2022-11-29T07:52:50.051Z,71.05
2022-11-29T07:55:20.074Z,70.70
2022-11-29T07:57:47.970Z,70.64
2022-11-29T08:00:23.198Z,71.17
2022-11-29T08:02:53.427Z,71.58
2022-11-29T08:05:20.169Z,72.74
2022-11-29T08:07:47.770Z,72.01
2022-11-29T08:10:15.762Z,70.88
2022-11-29T08:12:48.302Z,71.99
2022-11-29T08:15:15.151Z,71.43
2022-11-29T08:17:41.961Z,71.44
2022-11-29T08:20:11.083Z,70.91
2022-11-29T08:22:39.117Z,73.23
2022-11-29T08:25:10.753Z,71.08
2022-11-29T08:27:38.788Z,70.39
2022-11-29T08:30:07.202Z,70.69
2022-11-29T08:32:34.669Z,69.86
2022-11-29T08:35:01.286Z,69.71
2022-11-29T08:37:27.997Z,71.02
2022-11-29T08:39:55.352Z,70.43
2022-11-29T08:42:29.142Z,70.40
2022-11-29T08:44:55.841Z,70.75
2022-11-29T08:47:39.872Z,69.78
2022-11-29T08:50:14.349Z,72.10
2022-11-29T08:53:03.270Z,72.21
2022-11-29T08:55:48.142Z,70.34
2022-11-29T08:58:18.696Z,70.72
2022-11-29T09:00:47.347Z,70.06
2022-11-29T09:03:32.832Z,71.86
2022-11-29T09:06:10.464Z,71.50
2022-11-29T09:08:38.987Z,72.21
2022-11-29T09:11:16.305Z,71.50
2022-11-29T09:13:45.374Z,74.00
2022-11-29T09:16:14.901Z,73.30
2022-11-29T09:18:43.910Z,71.80
2022-11-29T09:21:14.735Z,70.86
2022-11-29T09:23:43.972Z,71.34
2022-11-29T09:26:16.162Z,72.50
2022-11-29T09:28:42.870Z,72.59
2022-11-29T09:31:14.768Z,74.02
2022-11-29T09:33:42.063Z,73.60
2022-11-29T09:36:12.702Z,73.18
2022-11-29T09:38:40.759Z,74.27
2022-11-29T09:41:26.097Z,72.37
2022-11-29T09:44:17.133Z,74.18
2022-11-29T09:47:19.996Z,75.47
2022-11-29T09:50:01.901Z,75.24
2022-11-29T09:52:53.989Z,75.06
2022-11-29T09:55:37.919Z,73.81
2022-11-29T09:58:09.690Z,75.67
2022-11-29T10:00:42.368Z,74.98
2022-11-29T10:03:23.333Z,73.36
2022-11-29T10:05:57.470Z,74.50
2022-11-29T10:08:28.625Z,74.25
2022-11-29T10:11:15.166Z,73.70
2022-11-29T10:13:48.971Z,73.07
2022-11-29T10:16:23.060Z,73.48
2022-11-29T10:19:20.869Z,73.61
2022-11-29T10:21:57.335Z,73.12
2022-11-29T10:24:26.975Z,72.38
2022-11-29T10:26:53.636Z,73.16
2022-11-29T10:29:20.825Z,75.65
2022-11-29T10:31:49.628Z,75.65
2022-11-29T10:34:22.433Z,73.50
2022-11-29T10:36:59.573Z,71.88
2022-11-29T10:39:42.225Z,71.53
2022-11-29T10:42:35.332Z,72.25
2022-11-29T10:45:03.036Z,71.70
2022-11-29T10:47:30.023Z,69.54
2022-11-29T10:49:57.356Z,70.73
2022-11-29T10:52:27.006Z,70.42
2022-11-29T10:54:58.642Z,73.54
2022-11-29T10:57:25.399Z,74.34
2022-11-29T11:00:06.875Z,73.06
2022-11-29T11:02:34.440Z,72.56
2022-11-29T11:05:01.616Z,70.66
2022-11-29T11:07:37.221Z,73.42
2022-11-29T11:10:26.713Z,73.41
2022-11-29T11:13:07.097Z,72.27
2022-11-29T11:15:34.044Z,74.88
2022-11-29T11:18:04.922Z,75.12
2022-11-29T11:20:41.566Z,71.88
2022-11-29T11:23:38.646Z,72.49
2022-11-29T11:26:11.473Z,72.41
2022-11-29T11:28:49.501Z,70.78
2022-11-29T11:31:27.849Z,71.85
2022-11-29T11:33:55.090Z,69.50
2022-11-29T11:36:25.104Z,71.42
2022-11-29T11:38:51.767Z,71.58
2022-11-29T11:41:21.603Z,73.38
2022-11-29T11:43:58.866Z,72.62
2022-11-29T11:46:48.552Z,73.48
2022-11-29T11:49:53.528Z,71.40
2022-11-29T11:52:32.184Z,72.19
2022-11-29T11:55:04.790Z,73.54
2022-11-29T11:57:34.015Z,72.68
2022-11-29T12:00:07.161Z,71.59
2022-11-29T12:02:40.968Z,70.39
2022-11-29T12:05:15.675Z,72.01
2022-11-29T12:08:09.860Z,71.23
2022-11-29T12:10:40.504Z,72.17
2022-11-29T12:13:17.079Z,74.43
2022-11-29T12:15:47.290Z,74.06
2022-11-29T12:18:33.836Z,72.92
2022-11-29T12:21:23.447Z,72.49
2022-11-29T12:23:54.199Z,72.02
2022-11-29T12:26:55.954Z,70.94
2022-11-29T12:29:18.559Z,70.57
2022-11-29T12:54:51.114Z,78.08
2022-11-29T12:57:35.905Z,78.79
2022-11-29T13:00:05.765Z,77.41
2022-11-29T13:02:44.465Z,75.60
2022-11-29T13:05:38.946Z,76.11
2022-11-29T13:08:31.313Z,76.68
2022-11-29T13:11:22.733Z,79.46
2022-11-29T13:14:08.320Z,80.59
2022-11-29T13:16:45.749Z,81.27
2022-11-29T13:19:17.721Z,81.05
2022-11-29T13:21:56.797Z,79.98
2022-11-29T13:24:41.224Z,79.39
2022-11-29T13:27:16.024Z,78.43
2022-11-29T13:29:43.054Z,80.93
2022-11-29T13:32:26.987Z,80.21
2022-11-29T13:34:59.394Z,79.57
2022-11-29T13:37:35.750Z,79.37
2022-11-29T13:40:31.743Z,79.96
2022-11-29T13:43:30.313Z,79.20
2022-11-29T13:46:25.228Z,80.10
2022-11-29T13:48:54.100Z,78.76
2022-11-29T13:51:29.705Z,77.59
2022-11-29T13:53:59.827Z,77.76
2022-11-29T13:56:36.305Z,79.45
2022-11-29T13:59:08.602Z,78.81
2022-11-29T14:01:45.354Z,78.04
2022-11-29T14:04:39.404Z,77.08
2022-11-29T14:07:05.937Z,79.33
2022-11-29T14:09:35.434Z,77.34
2022-11-29T14:12:39.319Z,78.05
2022-11-29T14:15:21.006Z,77.41
2022-11-29T14:17:55.724Z,80.67
2022-11-29T14:20:22.278Z,79.90
2022-11-29T14:23:30.989Z,78.91
2022-11-29T14:25:57.746Z,79.27
2022-11-29T14:28:24.292Z,78.26
2022-11-29T14:30:55.467Z,77.80
2022-11-29T14:33:44.688Z,78.75
2022-11-29T14:36:29.926Z,78.81
2022-11-29T14:39:20.630Z,78.64
2022-11-29T14:42:14.545Z,80.22
2022-11-29T14:44:53.662Z,80.03
2022-11-29T14:47:27.181Z,78.58
2022-11-29T14:49:56.141Z,79.61
2022-11-29T14:52:28.568Z,82.59
2022-11-29T14:55:16.626Z,80.20
2022-11-29T14:58:01.909Z,79.79
2022-11-29T15:00:34.741Z,80.50
2022-11-29T15:03:13.000Z,79.81
2022-11-29T15:05:42.536Z,77.72
2022-11-29T15:08:27.804Z,78.38
2022-11-29T15:11:01.042Z,79.35
2022-11-29T15:13:35.949Z,79.72
2022-11-29T15:16:58.037Z,80.91
2022-11-29T15:19:46.436Z,81.01
2022-11-29T15:22:29.502Z,81.83
2022-11-29T15:25:13.020Z,81.96
2022-11-29T15:27:56.847Z,81.93
2022-11-29T15:30:33.374Z,81.13
2022-11-29T15:33:01.888Z,80.63
2022-11-29T15:35:29.327Z,80.69
2022-11-29T15:37:56.693Z,80.39
2022-11-29T15:40:35.164Z,81.20
2022-11-29T15:43:22.886Z,81.79
2022-11-29T15:45:55.509Z,81.85
2022-11-29T15:48:24.985Z,82.17
2022-11-29T15:51:18.021Z,82.03
2022-11-29T15:53:54.049Z,81.60
2022-11-29T15:56:36.392Z,81.25
2022-11-29T15:59:14.921Z,81.29
2022-11-29T16:01:44.982Z,83.65
2022-11-29T16:04:29.736Z,80.92
2022-11-29T16:06:57.591Z,80.16
2022-11-29T16:09:38.898Z,81.30
2022-11-29T16:12:11.556Z,81.03
2022-11-29T16:14:48.745Z,80.75
2022-11-29T16:17:15.501Z,80.81
2022-11-29T16:19:43.046Z,79.99
2022-11-29T16:22:12.390Z,82.58
2022-11-29T16:24:45.895Z,81.34
2022-11-29T16:27:14.163Z,81.72
2022-11-29T16:29:46.069Z,81.86
2022-11-29T16:32:30.192Z,79.98
2022-11-29T16:35:05.364Z,80.91
2022-11-29T16:37:39.713Z,80.90
2022-11-29T16:40:07.444Z,80.25
2022-11-29T16:42:34.677Z,79.71
2022-11-29T16:45:19.894Z,79.59
2022-11-29T16:47:47.694Z,80.09
2022-11-29T16:50:21.088Z,80.69
2022-11-29T16:52:52.026Z,80.97
2022-11-29T16:55:21.650Z,80.21
2022-11-29T16:57:48.954Z,79.97
2022-11-29T17:00:23.696Z,81.01
2022-11-29T17:02:50.586Z,80.53
2022-11-29T17:05:17.240Z,80.24
2022-11-29T17:07:44.215Z,80.40
2022-11-29T17:10:16.509Z,80.41
2022-11-29T17:12:47.796Z,80.12
2022-11-29T17:15:15.174Z,80.72
2022-11-29T17:17:43.284Z,79.98
2022-11-29T17:20:12.341Z,80.13
2022-11-29T17:22:39.299Z,80.45
2022-11-29T17:25:06.532Z,81.39
2022-11-29T17:27:33.108Z,81.36
2022-11-29T17:29:59.764Z,80.62
2022-11-29T17:32:26.989Z,81.36
2022-11-29T17:34:54.005Z,80.94
2022-11-29T17:37:20.656Z,81.05
2022-11-29T17:39:49.122Z,80.34
2022-11-29T17:42:15.833Z,79.90
2022-11-29T17:44:42.576Z,80.42
2022-11-29T17:47:09.154Z,80.29
2022-11-29T17:49:35.794Z,80.66
2022-11-29T17:52:02.741Z,80.53
2022-11-29T17:54:32.951Z,80.18
2022-11-29T17:57:00.767Z,82.18
2022-11-29T17:59:27.384Z,80.93
2022-11-29T18:01:54.107Z,80.07
2022-11-29T18:04:20.810Z,80.27
2022-11-29T18:06:50.287Z,82.68
2022-11-29T18:09:18.523Z,82.32
2022-11-29T18:11:48.673Z,82.24
2022-11-29T18:14:19.310Z,83.01
2022-11-29T18:16:46.120Z,81.86
2022-11-29T18:19:15.671Z,83.10
2022-11-29T18:21:42.728Z,83.62
2022-11-29T18:24:09.859Z,83.65
2022-11-29T18:26:37.618Z,81.83
2022-11-29T18:29:05.769Z,80.86
2022-11-29T18:31:35.189Z,81.87
2022-11-29T18:34:06.252Z,82.73
2022-11-29T18:36:35.332Z,81.20
2022-11-29T18:39:10.916Z,82.63
2022-11-29T18:41:38.226Z,82.62
2022-11-29T18:44:09.957Z,81.95
2022-11-29T18:46:37.850Z,81.99
2022-11-29T18:49:07.195Z,81.57
2022-11-29T18:51:35.191Z,82.66
2022-11-29T18:54:02.448Z,83.08
2022-11-29T18:56:30.806Z,82.41
2022-11-29T18:59:03.332Z,81.84
2022-11-29T19:01:32.481Z,81.63
2022-11-29T19:04:00.554Z,81.65
2022-11-29T19:06:37.155Z,81.10
2022-11-29T19:09:06.951Z,80.38
2022-11-29T19:11:34.608Z,81.04
2022-11-29T19:14:03.263Z,81.59
2022-11-29T19:16:32.858Z,81.83
2022-11-29T19:19:00.600Z,83.03
2022-11-29T19:21:28.397Z,81.41
2022-11-29T19:23:57.498Z,83.06
2022-11-29T19:26:26.712Z,83.15
2022-11-29T19:28:53.809Z,83.40
2022-11-29T19:31:23.961Z,82.26
2022-11-29T19:33:52.602Z,81.22
2022-11-29T19:36:21.517Z,81.18
2022-11-29T19:38:53.161Z,80.74
2022-11-29T19:41:26.624Z,81.20
2022-11-29T19:43:55.508Z,80.46
2022-11-29T19:46:24.956Z,80.75
2022-11-29T19:48:53.230Z,83.29
2022-11-29T19:51:20.625Z,82.60
2022-11-29T19:53:48.313Z,81.11
2022-11-29T19:56:16.865Z,80.87
2022-11-29T19:58:44.349Z,81.82
2022-11-29T20:01:15.682Z,80.15
2022-11-29T20:03:43.292Z,80.54
2022-11-29T20:06:10.056Z,83.45
2022-11-29T20:08:38.292Z,84.55
2022-11-29T20:11:13.766Z,83.00
2022-11-29T20:13:42.721Z,84.90
2022-11-29T20:16:12.522Z,83.55
2022-11-29T20:18:44.602Z,82.28
2022-11-29T20:21:36.365Z,81.81
2022-11-29T20:24:06.133Z,81.33
2022-11-29T20:26:35.933Z,82.14
2022-11-29T20:29:03.326Z,82.25
2022-11-29T20:31:31.977Z,83.64
2022-11-29T20:33:59.126Z,84.38
2022-11-29T20:36:44.624Z,84.05
2022-11-29T20:39:28.961Z,83.89
2022-11-29T20:42:26.310Z,83.02
2022-11-29T20:44:57.359Z,83.54
2022-11-29T20:47:32.593Z,82.94
2022-11-29T20:49:59.309Z,83.00
2022-11-29T20:52:44.701Z,83.40
2022-11-29T20:55:11.377Z,82.32
2022-11-29T20:57:38.408Z,82.64
2022-11-29T21:00:11.457Z,84.21
2022-11-29T21:02:38.338Z,83.53
2022-11-29T21:05:05.957Z,83.87
2022-11-29T21:07:32.640Z,82.75
2022-11-29T21:10:01.411Z,83.88
2022-11-29T21:12:29.420Z,82.82
2022-11-29T21:14:56.564Z,81.62
2022-11-29T21:17:27.544Z,81.28
2022-11-29T21:19:58.723Z,83.05
2022-11-29T21:22:51.140Z,83.64
2022-11-29T21:25:48.884Z,84.85
2022-11-29T21:28:16.440Z,82.66
2022-11-29T21:30:43.952Z,83.65
2022-11-29T21:33:11.408Z,82.28
2022-11-29T21:35:42.212Z,82.11
2022-11-29T21:38:14.688Z,82.83
2022-11-29T21:40:41.338Z,85.53
2022-11-29T21:43:07.887Z,84.32
2022-11-29T21:45:34.521Z,82.88
2022-11-29T21:48:01.170Z,83.18
2022-11-29T21:50:27.806Z,81.84
2022-11-29T21:52:54.368Z,82.74
2022-11-29T21:55:21.004Z,82.24
2022-11-29T21:57:47.550Z,82.80
2022-11-29T22:00:14.713Z,82.50
2022-11-29T22:02:41.368Z,81.85
2022-11-29T22:05:09.578Z,82.81
2022-11-29T22:07:36.361Z,83.61
2022-11-29T22:10:09.940Z,82.72
2022-11-29T22:12:49.354Z,84.06
2022-11-29T22:15:24.166Z,83.43
2022-11-29T22:17:53.390Z,83.53
2022-11-29T22:20:20.531Z,82.92
2022-11-29T22:22:48.527Z,82.00
2022-11-29T22:25:15.866Z,82.45
2022-11-29T22:27:42.454Z,82.31
2022-11-29T22:30:09.392Z,82.24
2022-11-29T22:32:35.992Z,82.33
2022-11-29T22:35:02.549Z,81.96
2022-11-29T22:37:29.127Z,82.93
2022-11-29T22:39:55.893Z,82.61
2022-11-29T22:42:22.509Z,83.52
2022-11-29T22:44:49.249Z,82.98
2022-11-29T22:47:15.936Z,82.31
2022-11-29T22:49:44.462Z,82.89
2022-11-29T22:52:11.103Z,83.28
2022-11-29T22:54:37.719Z,82.20
2022-11-29T22:57:04.329Z,82.78
2022-11-29T22:59:30.965Z,83.70
2022-11-29T23:01:57.690Z,83.71
2022-11-29T23:04:24.281Z,83.14
2022-11-29T23:06:50.906Z,82.84
2022-11-29T23:09:21.700Z,83.27
2022-11-29T23:11:54.172Z,83.02
2022-11-29T23:14:22.176Z,83.27
2022-11-29T23:16:49.058Z,82.43
2022-11-29T23:19:16.332Z,83.33
2022-11-29T23:21:45.623Z,84.68
2022-11-29T23:24:13.429Z,83.90
2022-11-29T23:26:43.480Z,83.40
2022-11-29T23:29:13.275Z,84.58
2022-11-29T23:31:40.095Z,83.35
2022-11-29T23:34:07.173Z,84.37
2022-11-29T23:36:34.030Z,84.19
2022-11-29T23:39:04.190Z,84.69
2022-11-29T23:41:30.806Z,84.51
2022-11-29T23:43:59.694Z,85.92
2022-11-29T23:46:26.369Z,85.62
2022-11-29T23:48:53.085Z,86.86
2022-11-29T23:51:20.255Z,85.49
2022-11-29T23:53:51.111Z,84.99
2022-11-29T23:56:18.550Z,84.29
2022-11-29T23:58:45.513Z,83.36
